createdAt,value
2019-02-09T00:01:39.920Z,86.75
2019-02-09T00:04:10.338Z,86.38
2019-02-09T00:06:41.062Z,86.62
2019-02-09T00:09:12.425Z,86.69
2019-02-09T00:11:42.880Z,86.82
2019-02-09T00:14:13.260Z,87.68
2019-02-09T00:16:43.624Z,87.61
2019-02-09T00:19:14.101Z,87.64
2019-02-09T00:21:44.814Z,89.79
2019-02-09T00:24:15.222Z,89.02
2019-02-09T00:26:45.615Z,88.17
2019-02-09T00:29:16.068Z,87.61
2019-02-09T00:31:46.531Z,87.89
2019-02-09T00:34:16.893Z,87.99
2019-02-09T00:36:47.193Z,87.92
2019-02-09T00:39:17.749Z,87.79
2019-02-09T00:41:48.508Z,87.87
2019-02-09T00:44:18.980Z,87.88
2019-02-09T00:46:49.416Z,87.29
2019-02-09T00:49:20.142Z,87.62
2019-02-09T00:51:50.570Z,86.89
2019-02-09T00:54:21.335Z,86.30
2019-02-09T00:56:51.933Z,87.65
2019-02-09T00:59:22.332Z,88.19
2019-02-09T01:01:52.745Z,89.10
2019-02-09T01:04:23.201Z,89.14
2019-02-09T01:06:53.772Z,88.99
2019-02-09T01:09:24.270Z,89.53
2019-02-09T01:11:54.703Z,89.43
2019-02-09T01:14:25.473Z,88.62
2019-02-09T01:16:56.222Z,89.09
2019-02-09T01:19:26.648Z,89.46
2019-02-09T01:21:57.355Z,89.88
2019-02-09T01:24:28.164Z,89.55
2019-02-09T01:26:58.617Z,89.32
2019-02-09T01:29:28.977Z,89.83
2019-02-09T01:31:59.444Z,89.45
2019-02-09T01:34:29.924Z,89.53
2019-02-09T01:37:00.767Z,89.98
2019-02-09T01:39:31.223Z,90.07
2019-02-09T01:42:01.671Z,89.78
2019-02-09T01:44:32.092Z,89.78
2019-02-09T01:47:02.522Z,89.89
2019-02-09T01:49:33.353Z,89.79
2019-02-09T01:52:04.726Z,88.75
2019-02-09T01:54:35.072Z,89.29
2019-02-09T01:57:05.562Z,89.99
2019-02-09T01:59:35.863Z,89.90
2019-02-09T02:02:07.000Z,89.57
2019-02-09T02:04:37.346Z,89.93
2019-02-09T02:07:07.967Z,90.27
2019-02-09T02:09:38.341Z,90.09
2019-02-09T02:12:09.256Z,90.68
2019-02-09T02:14:39.729Z,90.40
2019-02-09T02:17:10.616Z,90.63
2019-02-09T02:19:41.268Z,90.51
2019-02-09T02:22:11.905Z,90.48
2019-02-09T02:24:42.352Z,90.97
2019-02-09T02:27:12.872Z,91.00
2019-02-09T02:29:43.291Z,91.52
2019-02-09T02:32:14.064Z,89.77
2019-02-09T02:34:44.726Z,90.14
2019-02-09T02:37:15.235Z,89.08
2019-02-09T02:39:45.677Z,89.48
2019-02-09T02:42:16.462Z,89.30
2019-02-09T02:44:46.903Z,90.40
2019-02-09T02:47:17.677Z,90.62
2019-02-09T02:49:48.493Z,90.42
2019-02-09T02:52:18.884Z,90.48
2019-02-09T02:54:49.310Z,90.58
2019-02-09T02:57:20.155Z,90.41
2019-02-09T02:59:50.633Z,89.61
2019-02-09T03:02:21.334Z,89.41
2019-02-09T03:04:51.695Z,89.39
2019-02-09T03:07:22.211Z,90.43
2019-02-09T03:09:52.621Z,90.61
2019-02-09T03:12:22.985Z,90.93
2019-02-09T03:14:53.373Z,91.43
2019-02-09T03:17:23.691Z,91.12
2019-02-09T03:19:54.079Z,90.69
2019-02-09T03:22:24.391Z,89.68
2019-02-09T03:24:54.753Z,89.34
2019-02-09T03:27:26.312Z,89.81
2019-02-09T03:29:56.778Z,90.20
2019-02-09T03:32:27.180Z,89.87
2019-02-09T03:34:57.508Z,89.88
2019-02-09T03:37:27.961Z,89.86
2019-02-09T03:39:58.215Z,90.04
2019-02-09T03:42:28.710Z,89.22
2019-02-09T03:44:59.087Z,89.45
2019-02-09T03:47:29.478Z,89.58
2019-02-09T03:49:59.833Z,89.50
2019-02-09T03:52:30.202Z,89.35
2019-02-09T03:55:00.577Z,89.24
2019-02-09T03:57:31.051Z,89.73
2019-02-09T04:00:01.847Z,89.58
2019-02-09T04:02:32.607Z,89.88
2019-02-09T04:05:03.373Z,90.01
2019-02-09T04:07:33.784Z,89.92
2019-02-09T04:10:05.340Z,89.12
2019-02-09T04:12:35.603Z,88.76
2019-02-09T04:15:08.116Z,89.20
2019-02-09T04:17:38.732Z,89.17
2019-02-09T04:20:11.459Z,89.06
2019-02-09T04:22:41.961Z,89.31
2019-02-09T04:25:14.062Z,89.38
2019-02-09T04:27:44.728Z,89.44
2019-02-09T04:30:24.302Z,88.50
2019-02-09T04:32:55.130Z,88.09
2019-02-09T04:35:25.825Z,88.36
2019-02-09T04:37:56.332Z,88.00
2019-02-09T04:40:29.423Z,88.44
2019-02-09T04:43:00.437Z,87.23
2019-02-09T04:45:31.201Z,87.02
2019-02-09T04:48:01.942Z,86.95
2019-02-09T04:50:32.743Z,85.93
2019-02-09T04:53:03.315Z,85.76
2019-02-09T04:55:33.838Z,85.86
2019-02-09T04:58:04.501Z,86.45
2019-02-09T05:00:35.232Z,86.73
2019-02-09T05:03:06.288Z,86.96
2019-02-09T05:05:36.775Z,87.31
2019-02-09T05:08:07.202Z,86.97
2019-02-09T05:10:37.533Z,86.91
2019-02-09T05:13:07.939Z,87.27
2019-02-09T05:15:38.620Z,87.77
2019-02-09T05:18:09.195Z,88.08
2019-02-09T05:20:40.111Z,87.70
2019-02-09T05:23:10.594Z,88.38
2019-02-09T05:25:40.905Z,88.53
2019-02-09T05:28:11.531Z,88.68
2019-02-09T05:30:42.339Z,88.45
2019-02-09T05:33:12.713Z,88.28
2019-02-09T05:35:42.996Z,89.07
2019-02-09T05:38:13.139Z,89.02
2019-02-09T05:40:43.474Z,89.04
2019-02-09T05:43:13.834Z,89.70
2019-02-09T05:45:44.400Z,90.20
2019-02-09T05:48:14.583Z,90.67
2019-02-09T05:50:45.172Z,91.15
2019-02-09T05:53:15.435Z,91.07
2019-02-09T05:55:45.823Z,91.39
2019-02-09T05:58:16.301Z,91.49
2019-02-09T06:00:46.510Z,91.49
2019-02-09T06:03:16.632Z,91.80
2019-02-09T06:05:47.242Z,91.76
2019-02-09T06:08:17.353Z,90.50
2019-02-09T06:10:47.547Z,89.48
2019-02-09T06:13:17.813Z,89.39
2019-02-09T06:15:48.180Z,89.59
2019-02-09T06:18:18.437Z,90.07
2019-02-09T06:20:48.699Z,90.27
2019-02-09T06:23:19.276Z,90.47
2019-02-09T06:25:49.654Z,90.83
2019-02-09T06:28:19.853Z,90.95
2019-02-09T06:30:50.460Z,91.07
2019-02-09T06:33:20.827Z,91.89
2019-02-09T06:35:51.182Z,91.51
2019-02-09T06:38:21.320Z,90.90
2019-02-09T06:40:51.611Z,91.62
2019-02-09T06:43:21.815Z,92.00
2019-02-09T06:45:52.497Z,92.38
2019-02-09T06:48:26.658Z,92.57
2019-02-09T06:50:59.406Z,92.79
2019-02-09T06:53:29.699Z,92.88
2019-02-09T06:56:00.036Z,93.08
2019-02-09T06:58:30.247Z,93.30
2019-02-09T07:01:00.454Z,93.18
2019-02-09T07:03:30.739Z,93.64
2019-02-09T07:06:01.019Z,93.70
2019-02-09T07:08:31.341Z,93.79
2019-02-09T07:11:01.882Z,93.92
2019-02-09T07:13:32.724Z,94.01
2019-02-09T07:16:03.186Z,93.98
2019-02-09T07:18:33.555Z,93.80
2019-02-09T07:21:03.833Z,93.72
2019-02-09T07:23:34.000Z,94.03
2019-02-09T07:26:04.456Z,93.95
2019-02-09T07:28:34.687Z,94.14
2019-02-09T07:31:05.429Z,94.17
2019-02-09T07:33:36.096Z,94.22
2019-02-09T07:36:07.337Z,94.56
2019-02-09T07:38:37.696Z,94.38
2019-02-09T07:41:08.122Z,94.17
2019-02-09T07:43:38.517Z,92.63
2019-02-09T07:46:09.108Z,91.44
2019-02-09T07:48:39.341Z,90.53
2019-02-09T07:51:09.691Z,89.43
2019-02-09T07:53:39.828Z,89.22
2019-02-09T07:56:10.169Z,88.25
2019-02-09T07:58:40.388Z,84.60
2019-02-09T08:01:10.773Z,79.29
2019-02-09T08:03:40.973Z,77.30
2019-02-09T08:06:11.258Z,75.91
2019-02-09T08:08:41.579Z,76.04
2019-02-09T08:11:12.427Z,73.60
2019-02-09T08:13:42.805Z,70.47
2019-02-09T08:16:12.946Z,69.33
2019-02-09T08:18:43.274Z,67.40
2019-02-09T08:21:13.748Z,68.01
2019-02-09T08:23:44.107Z,66.55
2019-02-09T08:26:14.768Z,64.15
2019-02-09T08:28:45.402Z,64.04
2019-02-09T08:31:15.910Z,65.28
2019-02-09T08:33:46.030Z,67.36
2019-02-09T08:36:16.377Z,70.64
2019-02-09T08:38:46.592Z,72.47
2019-02-09T08:41:16.999Z,74.76
2019-02-09T08:43:47.208Z,75.92
2019-02-09T08:46:17.910Z,77.12
2019-02-09T08:48:48.266Z,77.31
2019-02-09T08:51:18.622Z,78.18
2019-02-09T08:53:48.766Z,78.11
2019-02-09T08:56:18.981Z,75.64
2019-02-09T08:58:49.113Z,72.29
2019-02-09T09:01:19.867Z,67.42
2019-02-09T09:03:50.016Z,67.29
2019-02-09T09:06:20.365Z,62.79
2019-02-09T09:08:50.891Z,60.89
2019-02-09T09:11:21.041Z,58.31
2019-02-09T09:13:51.168Z,59.30
2019-02-09T09:16:21.422Z,63.66
2019-02-09T09:18:51.872Z,68.20
2019-02-09T09:21:22.202Z,68.33
2019-02-09T09:23:52.433Z,68.33
2019-02-09T09:26:22.767Z,65.98
2019-02-09T09:28:53.520Z,64.57
2019-02-09T09:31:23.862Z,65.62
2019-02-09T09:33:54.215Z,63.90
2019-02-09T09:36:24.519Z,65.31
2019-02-09T09:38:54.656Z,66.56
2019-02-09T09:41:24.983Z,66.46
2019-02-09T09:43:55.475Z,66.05
2019-02-09T09:46:25.805Z,66.82
2019-02-09T09:48:56.312Z,68.27
2019-02-09T09:51:26.959Z,70.51
2019-02-09T09:53:57.411Z,71.38
2019-02-09T09:56:27.881Z,71.59
2019-02-09T09:58:58.199Z,71.28
2019-02-09T10:01:28.581Z,70.75
2019-02-09T10:03:58.780Z,69.01
2019-02-09T10:06:29.162Z,65.50
2019-02-09T10:08:59.647Z,61.39
2019-02-09T10:11:30.295Z,62.96
2019-02-09T10:14:07.720Z,65.42
2019-02-09T10:16:32.461Z,66.57
2019-02-09T10:19:02.734Z,68.01
2019-02-09T10:21:33.276Z,67.47
2019-02-09T10:24:03.615Z,65.19
2019-02-09T10:26:34.002Z,63.53
2019-02-09T10:29:04.348Z,63.02
2019-02-09T10:31:35.306Z,62.27
2019-02-09T10:34:05.807Z,62.50
2019-02-09T10:36:36.241Z,62.41
2019-02-09T10:39:10.250Z,61.63
2019-02-09T10:41:40.529Z,61.91
2019-02-09T10:44:11.064Z,62.50
2019-02-09T10:46:41.451Z,63.90
2019-02-09T10:49:11.665Z,65.21
2019-02-09T10:51:42.227Z,67.22
2019-02-09T10:54:12.505Z,66.52
2019-02-09T10:56:43.279Z,66.58
2019-02-09T10:59:13.820Z,67.11
2019-02-09T11:01:44.825Z,68.03
2019-02-09T11:04:15.462Z,68.25
2019-02-09T11:06:45.740Z,69.41
2019-02-09T11:09:21.545Z,69.06
2019-02-09T11:11:52.015Z,69.00
2019-02-09T11:14:22.293Z,69.70
2019-02-09T11:16:52.637Z,69.79
2019-02-09T11:19:22.821Z,69.53
2019-02-09T11:21:52.945Z,68.74
2019-02-09T11:24:23.123Z,68.81
2019-02-09T11:26:53.502Z,68.81
2019-02-09T11:29:23.955Z,67.47
2019-02-09T11:31:54.444Z,67.06
2019-02-09T11:34:24.811Z,67.99
2019-02-09T11:36:55.121Z,67.60
2019-02-09T11:39:25.274Z,68.33
2019-02-09T11:41:55.569Z,65.96
2019-02-09T11:44:25.836Z,66.16
2019-02-09T11:46:56.208Z,67.14
2019-02-09T11:49:26.325Z,67.03
2019-02-09T11:51:56.610Z,67.14
2019-02-09T11:54:26.816Z,67.29
2019-02-09T11:56:56.988Z,66.76
2019-02-09T11:59:27.200Z,67.33
2019-02-09T12:01:57.500Z,66.77
2019-02-09T12:04:27.614Z,66.08
2019-02-09T12:06:58.182Z,64.56
2019-02-09T12:09:28.317Z,65.04
2019-02-09T12:11:58.774Z,67.04
2019-02-09T12:14:28.902Z,67.62
2019-02-09T12:16:59.805Z,67.76
2019-02-09T12:19:29.917Z,67.67
2019-02-09T12:22:00.096Z,68.18
2019-02-09T12:24:30.302Z,68.30
2019-02-09T12:27:00.653Z,67.58
2019-02-09T12:29:30.866Z,68.00
2019-02-09T12:32:01.256Z,68.44
2019-02-09T12:34:31.674Z,68.40
2019-02-09T12:37:02.038Z,68.57
2019-02-09T12:39:32.250Z,68.49
2019-02-09T12:42:02.699Z,66.70
2019-02-09T12:44:32.987Z,65.96
2019-02-09T12:47:03.209Z,65.40
2019-02-09T12:49:33.336Z,65.71
2019-02-09T12:52:03.603Z,65.91
2019-02-09T12:54:33.734Z,66.90
2019-02-09T12:57:04.025Z,66.10
2019-02-09T12:59:34.475Z,66.52
2019-02-09T13:02:04.899Z,64.79
2019-02-09T13:04:35.191Z,63.30
2019-02-09T13:07:05.807Z,62.84
2019-02-09T13:09:37.707Z,62.22
2019-02-09T13:12:07.902Z,63.77
2019-02-09T13:14:38.125Z,64.69
2019-02-09T13:17:08.572Z,63.90
2019-02-09T13:19:38.776Z,64.88
2019-02-09T13:22:09.852Z,64.70
2019-02-09T13:24:40.143Z,65.38
2019-02-09T13:27:10.918Z,65.10
2019-02-09T13:29:41.407Z,65.01
2019-02-09T13:32:11.681Z,64.05
2019-02-09T13:34:42.072Z,61.87
2019-02-09T13:37:12.261Z,59.91
2019-02-09T13:39:42.418Z,60.40
2019-02-09T13:42:13.342Z,59.78
2019-02-09T13:44:43.645Z,61.62
2019-02-09T13:47:14.091Z,61.49
2019-02-09T13:49:44.480Z,62.10
2019-02-09T13:54:28.456Z,62.27
2019-02-09T13:57:00.399Z,62.03
2019-02-09T13:59:31.773Z,61.79
2019-02-09T14:02:03.376Z,62.49
2019-02-09T14:04:34.772Z,64.04
2019-02-09T14:07:06.530Z,62.76
2019-02-09T14:09:38.338Z,63.32
2019-02-09T14:12:09.701Z,64.08
2019-02-09T14:14:41.102Z,63.09
2019-02-09T14:17:12.599Z,62.87
2019-02-09T14:19:43.772Z,63.45
2019-02-09T14:22:15.220Z,61.59
2019-02-09T14:24:46.732Z,61.89
2019-02-09T14:27:19.997Z,62.29
2019-02-09T14:29:51.536Z,62.56
2019-02-09T14:32:23.053Z,62.27
2019-02-09T14:34:54.385Z,62.92
2019-02-09T14:37:25.965Z,61.58
2019-02-09T14:39:57.361Z,61.10
2019-02-09T14:42:29.763Z,60.51
2019-02-09T14:45:01.125Z,62.10
2019-02-09T14:47:32.600Z,62.34
2019-02-09T14:50:11.086Z,63.24
2019-02-09T14:52:37.875Z,63.54
2019-02-09T14:55:11.671Z,62.89
2019-02-09T14:57:43.326Z,62.29
2019-02-09T15:00:19.384Z,63.26
2019-02-09T15:02:53.903Z,61.86
2019-02-09T15:05:25.478Z,61.82
2019-02-09T15:07:56.869Z,63.26
2019-02-09T15:10:28.436Z,62.96
2019-02-09T15:13:00.157Z,63.03
2019-02-09T15:15:35.534Z,63.50
2019-02-09T15:18:08.988Z,63.01
2019-02-09T15:20:45.489Z,63.72
2019-02-09T15:23:17.151Z,65.14
2019-02-09T15:25:48.591Z,64.77
2019-02-09T15:28:20.432Z,65.13
2019-02-09T15:30:52.014Z,65.71
2019-02-09T15:33:23.439Z,65.88
2019-02-09T15:35:54.918Z,66.71
2019-02-09T15:38:26.679Z,67.77
2019-02-09T15:40:58.174Z,67.15
2019-02-09T15:43:29.543Z,68.07
2019-02-09T15:46:02.166Z,68.62
2019-02-09T15:48:33.689Z,69.58
2019-02-09T15:51:05.057Z,70.08
2019-02-09T15:53:36.898Z,70.90
2019-02-09T15:56:08.345Z,70.84
2019-02-09T15:58:39.683Z,72.05
2019-02-09T16:01:11.127Z,72.72
2019-02-09T16:03:42.847Z,73.64
2019-02-09T16:06:14.398Z,74.25
2019-02-09T16:08:45.811Z,74.52
2019-02-09T16:11:17.292Z,74.20
2019-02-09T16:13:49.866Z,74.65
2019-02-09T16:16:21.380Z,74.85
2019-02-09T16:18:52.842Z,75.12
2019-02-09T16:21:24.194Z,74.85
2019-02-09T16:23:55.840Z,74.72
2019-02-09T16:26:27.351Z,74.59
2019-02-09T16:28:58.666Z,74.77
2019-02-09T16:31:30.096Z,74.61
2019-02-09T16:34:01.592Z,75.26
2019-02-09T16:36:33.082Z,74.99
2019-02-09T16:39:07.121Z,76.24
2019-02-09T16:41:40.131Z,76.89
2019-02-09T16:44:11.521Z,76.70
2019-02-09T16:46:42.871Z,76.48
2019-02-09T16:49:14.217Z,75.37
2019-02-09T16:51:45.675Z,76.23
2019-02-09T16:54:17.073Z,75.05
2019-02-09T16:56:48.518Z,75.68
2019-02-09T16:59:19.837Z,75.05
2019-02-09T17:01:51.374Z,78.20
2019-02-09T17:04:22.842Z,78.45
2019-02-09T17:06:54.338Z,78.64
2019-02-09T17:09:25.667Z,77.78
2019-02-09T17:11:57.112Z,78.02
2019-02-09T17:14:28.411Z,78.97
2019-02-09T17:16:59.806Z,79.28
2019-02-09T17:19:31.242Z,77.54
2019-02-09T17:22:02.542Z,76.53
2019-02-09T17:24:33.955Z,76.40
2019-02-09T17:27:06.020Z,75.94
2019-02-09T17:29:37.428Z,75.40
2019-02-09T17:32:30.774Z,75.63
2019-02-09T17:35:02.276Z,76.02
2019-02-09T17:37:34.188Z,76.06
2019-02-09T17:40:07.836Z,76.26
2019-02-09T17:42:39.335Z,76.52
2019-02-09T17:45:16.298Z,75.81
2019-02-09T17:47:47.861Z,74.59
2019-02-09T17:50:19.345Z,74.60
2019-02-09T17:52:51.016Z,74.61
2019-02-09T17:55:23.434Z,74.59
2019-02-09T17:57:55.753Z,74.90
2019-02-09T18:00:33.937Z,75.58
2019-02-09T18:03:05.543Z,76.09
2019-02-09T18:05:37.293Z,75.79
2019-02-09T18:08:09.333Z,75.70
2019-02-09T18:10:40.784Z,76.39
2019-02-09T18:13:12.288Z,76.93
2019-02-09T18:15:43.715Z,77.57
2019-02-09T18:18:15.152Z,78.05
2019-02-09T18:20:46.668Z,78.65
2019-02-09T18:23:18.102Z,79.03
2019-02-09T18:25:49.506Z,79.96
2019-02-09T18:28:21.361Z,79.91
2019-02-09T18:30:52.874Z,80.14
2019-02-09T18:33:24.707Z,79.86
2019-02-09T18:35:56.236Z,80.18
2019-02-09T18:38:27.572Z,81.00
2019-02-09T18:40:58.955Z,81.60
2019-02-09T18:43:30.603Z,81.52
2019-02-09T18:46:02.515Z,81.75
2019-02-09T18:48:34.302Z,82.75
2019-02-09T18:51:06.061Z,82.31
2019-02-09T18:53:37.420Z,82.20
2019-02-09T18:56:08.914Z,82.74
2019-02-09T18:58:40.316Z,82.92
2019-02-09T19:01:13.030Z,83.33
2019-02-09T19:03:44.859Z,83.59
2019-02-09T19:06:16.367Z,83.78
2019-02-09T19:08:47.875Z,83.10
2019-02-09T19:11:19.250Z,83.60
2019-02-09T19:13:50.922Z,84.32
2019-02-09T19:16:23.420Z,83.72
2019-02-09T19:18:55.656Z,83.21
2019-02-09T19:21:27.192Z,82.34
2019-02-09T19:23:59.269Z,84.12
2019-02-09T19:26:30.729Z,84.24
2019-02-09T19:29:02.091Z,84.20
2019-02-09T19:31:33.592Z,83.40
2019-02-09T19:34:05.378Z,82.38
2019-02-09T19:36:36.890Z,83.14
2019-02-09T19:39:10.894Z,83.60
2019-02-09T19:41:42.734Z,84.63
2019-02-09T19:44:14.178Z,84.85
2019-02-09T19:46:45.655Z,85.19
2019-02-09T19:49:17.462Z,84.47
2019-02-09T19:51:48.896Z,83.64
2019-02-09T19:54:20.257Z,84.62
2019-02-09T19:56:51.884Z,85.84
2019-02-09T19:59:23.318Z,86.42
2019-02-09T20:01:54.574Z,87.12
2019-02-09T20:04:25.900Z,87.55
2019-02-09T20:06:57.205Z,88.18
2019-02-09T20:09:28.540Z,87.95
2019-02-09T20:11:59.770Z,87.63
2019-02-09T20:14:31.383Z,87.43
2019-02-09T20:17:02.653Z,87.21
2019-02-09T20:19:34.052Z,87.46
2019-02-09T20:22:05.540Z,87.08
2019-02-09T20:24:36.850Z,86.86
2019-02-09T20:27:08.378Z,87.53
2019-02-09T20:29:39.627Z,88.28
2019-02-09T20:32:11.383Z,87.93
2019-02-09T20:34:42.716Z,86.90
2019-02-09T20:37:14.055Z,87.44
2019-02-09T20:39:46.093Z,88.28
2019-02-09T20:42:18.999Z,89.05
2019-02-09T20:44:50.571Z,89.27
2019-02-09T20:47:21.836Z,89.54
2019-02-09T20:49:53.415Z,89.03
2019-02-09T20:52:24.934Z,88.51
2019-02-09T20:54:56.480Z,89.12
2019-02-09T20:57:27.920Z,88.59
2019-02-09T20:59:59.096Z,88.87
2019-02-09T21:02:30.499Z,89.06
2019-02-09T21:05:01.747Z,88.18
2019-02-09T21:07:33.067Z,90.45
2019-02-09T21:10:04.969Z,89.61
2019-02-09T21:12:36.351Z,88.63
2019-02-09T21:15:09.293Z,88.51
2019-02-09T21:17:41.118Z,88.79
2019-02-09T21:20:12.972Z,88.65
2019-02-09T21:22:44.279Z,87.25
2019-02-09T21:25:22.328Z,88.39
2019-02-09T21:27:54.068Z,87.72
2019-02-09T21:30:25.877Z,88.27
2019-02-09T21:32:57.795Z,90.26
2019-02-09T21:35:30.590Z,89.62
2019-02-09T21:38:02.057Z,88.17
2019-02-09T21:40:33.661Z,88.59
2019-02-09T21:43:05.080Z,88.70
2019-02-09T21:45:36.508Z,88.57
2019-02-09T21:48:07.983Z,88.89
2019-02-09T21:50:39.609Z,89.27
2019-02-09T21:53:12.122Z,88.64
2019-02-09T21:55:43.771Z,88.07
2019-02-09T21:58:15.018Z,88.23
2019-02-09T22:00:46.601Z,88.03
2019-02-09T22:03:17.837Z,88.56
2019-02-09T22:05:51.929Z,89.59
2019-02-09T22:08:22.226Z,89.25
2019-02-09T22:10:53.545Z,89.19
2019-02-09T22:13:25.555Z,90.16
2019-02-09T22:15:56.720Z,90.09
2019-02-09T22:18:29.261Z,90.00
2019-02-09T22:21:00.641Z,90.37
2019-02-09T22:23:31.978Z,91.19
2019-02-09T22:26:03.199Z,89.76
2019-02-09T22:28:34.390Z,89.34
2019-02-09T22:31:06.953Z,91.86
2019-02-09T22:33:38.394Z,91.79
2019-02-09T22:36:09.651Z,91.19
2019-02-09T22:38:40.848Z,90.95
2019-02-09T22:41:12.019Z,90.24
2019-02-09T22:43:43.194Z,91.05
2019-02-09T22:46:14.912Z,89.46
2019-02-09T22:48:46.179Z,88.84
2019-02-09T22:51:17.750Z,88.94
2019-02-09T22:53:48.933Z,89.18
2019-02-09T22:56:20.194Z,89.48
2019-02-09T22:58:51.471Z,89.80
2019-02-09T23:01:34.183Z,90.08
2019-02-09T23:04:39.945Z,90.53
2019-02-09T23:07:15.692Z,90.62
2019-02-09T23:09:46.990Z,89.79
2019-02-09T23:12:18.696Z,89.99
2019-02-09T23:14:50.017Z,90.59
2019-02-09T23:17:22.322Z,91.29
2019-02-09T23:19:53.505Z,91.51
2019-02-09T23:22:24.804Z,91.91
2019-02-09T23:24:56.127Z,91.74
2019-02-09T23:27:27.424Z,92.17
2019-02-09T23:29:58.771Z,91.42
2019-02-09T23:32:30.066Z,91.76
2019-02-09T23:35:01.229Z,91.27
2019-02-09T23:37:32.534Z,91.44
2019-02-09T23:40:04.273Z,91.17
2019-02-09T23:42:35.801Z,91.72
2019-02-09T23:45:07.444Z,91.86
2019-02-09T23:47:39.114Z,90.77
2019-02-09T23:50:10.571Z,89.33
2019-02-09T23:52:42.075Z,89.38
2019-02-09T23:55:13.314Z,90.09
2019-02-09T23:57:45.905Z,90.58
